Aviation Digital Data Service (ADDS)

Output produced by METARs form (0852 UTC 26 January 2020)
found at http://www.aviationweather.gov/metar/data/
 
METAR text: LUKK 260830Z 36005KT CAVOK 02/M05 Q1025 R26/D NOSIG
Conditions at: LUKK (CHISINAU INTL , MD) observed 0830 UTC 26 January 2020
Temperature: 2.0°C (36°F)
Dewpoint: -5.0°C (23°F) [RH = 60%]
Pressure (altimeter): 30.27 inches Hg (1025.0 mb)
Winds: from the N (360 degrees) at 6 MPH (5 knots; 2.6 m/s)
Visibility: 6 or more miles (10+ km)
Ceiling: ceiling and visibility are OK
Clouds: unknown
Weather: no significant weather observed at this time

METAR text: LUKK 260800Z 36003KT CAVOK 00/M05 Q1024 R26/D NOSIG
Conditions at: LUKK (CHISINAU INTL , MD) observed 0800 UTC 26 January 2020
Temperature: 0.0°C (32°F)
Dewpoint: -5.0°C (23°F) [RH = 69%]
Pressure (altimeter): 30.24 inches Hg (1024.0 mb)
Winds: from the N (360 degrees) at 3 MPH (3 knots; 1.5 m/s)
Visibility: 6 or more miles (10+ km)
Ceiling: ceiling and visibility are OK
Clouds: unknown
Weather: no significant weather observed at this time

METAR text: LUKK 260730Z 36005KT CAVOK M01/M06 Q1024 R26/D NOSIG
Conditions at: LUKK (CHISINAU INTL , MD) observed 0730 UTC 26 January 2020
Temperature: -1.0°C (30°F)
Dewpoint: -6.0°C (21°F) [RH = 69%]
Pressure (altimeter): 30.24 inches Hg (1024.0 mb)
Winds: from the N (360 degrees) at 6 MPH (5 knots; 2.6 m/s)
Visibility: 6 or more miles (10+ km)
Ceiling: ceiling and visibility are OK
Clouds: unknown
Weather: no significant weather observed at this time

METAR text: LUKK 260700Z VRB02KT 9000 NSC M02/M06 Q1024 R26/D NOSIG
Conditions at: LUKK (CHISINAU INTL , MD) observed 0700 UTC 26 January 2020
Temperature: -2.0°C (28°F)
Dewpoint: -6.0°C (21°F) [RH = 74%]
Pressure (altimeter): 30.24 inches Hg (1024.0 mb)
Winds: variable direction winds at 2 MPH (2 knots; 1.0 m/s)
Visibility: 6 miles ( 9 km)
Ceiling: at least 12,000 feet AGL
Clouds: sky clear below 12,000 feet AGL
Weather: no significant weather observed at this time

METAR text: LUKK 260630Z 00000KT 8000 NSC M04/M07 Q1024 R26/D NOSIG
Conditions at: LUKK (CHISINAU INTL , MD) observed 0630 UTC 26 January 2020
Temperature: -4.0°C (25°F)
Dewpoint: -7.0°C (19°F) [RH = 80%]
Pressure (altimeter): 30.24 inches Hg (1024.0 mb)
Winds: calm
Visibility: 5 miles ( 8 km)
Ceiling: at least 12,000 feet AGL
Clouds: sky clear below 12,000 feet AGL
Weather: no significant weather observed at this time

METAR text: LUKK 260600Z VRB02KT 9000 NSC M06/M09 Q1023 R08/D NOSIG
Conditions at: LUKK (CHISINAU INTL , MD) observed 0600 UTC 26 January 2020
Temperature: -6.0°C (21°F)
Dewpoint: -9.0°C (16°F) [RH = 79%]
Pressure (altimeter): 30.21 inches Hg (1023.0 mb)
Winds: variable direction winds at 2 MPH (2 knots; 1.0 m/s)
Visibility: 6 miles ( 9 km)
Ceiling: at least 12,000 feet AGL
Clouds: sky clear below 12,000 feet AGL
Weather: no significant weather observed at this time

METAR text: LUKK 260530Z VRB02KT 8000 NSC M05/M08 Q1023 R08/D NOSIG
Conditions at: LUKK (CHISINAU INTL , MD) observed 0530 UTC 26 January 2020
Temperature: -5.0°C (23°F)
Dewpoint: -8.0°C (18°F) [RH = 79%]
Pressure (altimeter): 30.21 inches Hg (1023.0 mb)
Winds: variable direction winds at 2 MPH (2 knots; 1.0 m/s)
Visibility: 5 miles ( 8 km)
Ceiling: at least 12,000 feet AGL
Clouds: sky clear below 12,000 feet AGL
Weather: no significant weather observed at this time

METAR text: LUKK 260500Z 28003KT 250V330 CAVOK M05/M08 Q1023 R08/D NOSIG
Conditions at: LUKK (CHISINAU INTL , MD) observed 0500 UTC 26 January 2020
Temperature: -5.0°C (23°F)
Dewpoint: -8.0°C (18°F) [RH = 79%]
Pressure (altimeter): 30.21 inches Hg (1023.0 mb)
Winds: from the W (280 degrees) at 3 MPH (3 knots; 1.5 m/s)
Visibility: 6 or more miles (10+ km)
Ceiling: ceiling and visibility are OK
Clouds: unknown
Weather: no significant weather observed at this time

METAR text: LUKK 260430Z 29004KT 260V330 9000 NSC M04/M08 Q1022 R08/D NOSIG
Conditions at: LUKK (CHISINAU INTL , MD) observed 0430 UTC 26 January 2020
Temperature: -4.0°C (25°F)
Dewpoint: -8.0°C (18°F) [RH = 74%]
Pressure (altimeter): 30.18 inches Hg (1022.0 mb)
Winds: from the WNW (290 degrees) at 5 MPH (4 knots; 2.1 m/s)
Visibility: 6 miles ( 9 km)
Ceiling: at least 12,000 feet AGL
Clouds: sky clear below 12,000 feet AGL
Weather: no significant weather observed at this time

METAR text: LUKK 260400Z 36003KT 9000 NSC M03/M07 Q1022 R08/D NOSIG
Conditions at: LUKK (CHISINAU INTL , MD) observed 0400 UTC 26 January 2020
Temperature: -3.0°C (27°F)
Dewpoint: -7.0°C (19°F) [RH = 74%]
Pressure (altimeter): 30.18 inches Hg (1022.0 mb)
Winds: from the N (360 degrees) at 3 MPH (3 knots; 1.5 m/s)
Visibility: 6 miles ( 9 km)
Ceiling: at least 12,000 feet AGL
Clouds: sky clear below 12,000 feet AGL
Weather: no significant weather observed at this time

METAR text: LUKK 260330Z 36002KT 9000 NSC M04/M07 Q1022 R08/D NOSIG
Conditions at: LUKK (CHISINAU INTL , MD) observed 0330 UTC 26 January 2020
Temperature: -4.0°C (25°F)
Dewpoint: -7.0°C (19°F) [RH = 80%]
Pressure (altimeter): 30.18 inches Hg (1022.0 mb)
Winds: from the N (360 degrees) at 2 MPH (2 knots; 1.0 m/s)
Visibility: 6 miles ( 9 km)
Ceiling: at least 12,000 feet AGL
Clouds: sky clear below 12,000 feet AGL
Weather: no significant weather observed at this time

METAR text: LUKK 260300Z VRB02KT 9000 NSC M04/M07 Q1022 R08/D NOSIG
Conditions at: LUKK (CHISINAU INTL , MD) observed 0300 UTC 26 January 2020
Temperature: -4.0°C (25°F)
Dewpoint: -7.0°C (19°F) [RH = 80%]
Pressure (altimeter): 30.18 inches Hg (1022.0 mb)
Winds: variable direction winds at 2 MPH (2 knots; 1.0 m/s)
Visibility: 6 miles ( 9 km)
Ceiling: at least 12,000 feet AGL
Clouds: sky clear below 12,000 feet AGL
Weather: no significant weather observed at this time

METAR text: LUKK 260230Z VRB01KT CAVOK M05/M10 Q1021 R08/D NOSIG
Conditions at: LUKK (CHISINAU INTL , MD) observed 0230 UTC 26 January 2020
Temperature: -5.0°C (23°F)
Dewpoint: -10.0°C (14°F) [RH = 68%]
Pressure (altimeter): 30.15 inches Hg (1021.0 mb)
Winds: variable direction winds at 1 MPH (1 knots; 0.5 m/s)
Visibility: 6 or more miles (10+ km)
Ceiling: ceiling and visibility are OK
Clouds: unknown
Weather: no significant weather observed at this time

METAR text: LUKK 260200Z VRB01KT CAVOK M03/M07 Q1021 R08/D NOSIG
Conditions at: LUKK (CHISINAU INTL , MD) observed 0200 UTC 26 January 2020
Temperature: -3.0°C (27°F)
Dewpoint: -7.0°C (19°F) [RH = 74%]
Pressure (altimeter): 30.15 inches Hg (1021.0 mb)
Winds: variable direction winds at 1 MPH (1 knots; 0.5 m/s)
Visibility: 6 or more miles (10+ km)
Ceiling: ceiling and visibility are OK
Clouds: unknown
Weather: no significant weather observed at this time

METAR text: LUKK 260130Z VRB01KT 9000 NSC M04/M08 Q1022 R08/D NOSIG
Conditions at: LUKK (CHISINAU INTL , MD) observed 0130 UTC 26 January 2020
Temperature: -4.0°C (25°F)
Dewpoint: -8.0°C (18°F) [RH = 74%]
Pressure (altimeter): 30.18 inches Hg (1022.0 mb)
Winds: variable direction winds at 1 MPH (1 knots; 0.5 m/s)
Visibility: 6 miles ( 9 km)
Ceiling: at least 12,000 feet AGL
Clouds: sky clear below 12,000 feet AGL
Weather: no significant weather observed at this time

METAR text: LUKK 260100Z 35004KT 9000 NSC M04/M09 Q1022 R08/D NOSIG
Conditions at: LUKK (CHISINAU INTL , MD) observed 0100 UTC 26 January 2020
Temperature: -4.0°C (25°F)
Dewpoint: -9.0°C (16°F) [RH = 68%]
Pressure (altimeter): 30.18 inches Hg (1022.0 mb)
Winds: from the N (350 degrees) at 5 MPH (4 knots; 2.1 m/s)
Visibility: 6 miles ( 9 km)
Ceiling: at least 12,000 feet AGL
Clouds: sky clear below 12,000 feet AGL
Weather: no significant weather observed at this time

METAR text: LUKK 260030Z 29006KT CAVOK M04/M08 Q1021 R08/D NOSIG
Conditions at: LUKK (CHISINAU INTL , MD) observed 0030 UTC 26 January 2020
Temperature: -4.0°C (25°F)
Dewpoint: -8.0°C (18°F) [RH = 74%]
Pressure (altimeter): 30.15 inches Hg (1021.0 mb)
Winds: from the WNW (290 degrees) at 7 MPH (6 knots; 3.1 m/s)
Visibility: 6 or more miles (10+ km)
Ceiling: ceiling and visibility are OK
Clouds: unknown
Weather: no significant weather observed at this time

METAR text: LUKK 260000Z 27004KT 9000 NSC M06/M08 Q1021 R08/D NOSIG
Conditions at: LUKK (CHISINAU INTL , MD) observed 0000 UTC 26 January 2020
Temperature: -6.0°C (21°F)
Dewpoint: -8.0°C (18°F) [RH = 86%]
Pressure (altimeter): 30.15 inches Hg (1021.0 mb)
Winds: from the W (270 degrees) at 5 MPH (4 knots; 2.1 m/s)
Visibility: 6 miles ( 9 km)
Ceiling: at least 12,000 feet AGL
Clouds: sky clear below 12,000 feet AGL
Weather: no significant weather observed at this time

METAR text: LUKK 252330Z 23002KT 9000 NSC M04/M09 Q1021 R08/D NOSIG
Conditions at: LUKK (CHISINAU INTL , MD) observed 2330 UTC 25 January 2020
Temperature: -4.0°C (25°F)
Dewpoint: -9.0°C (16°F) [RH = 68%]
Pressure (altimeter): 30.15 inches Hg (1021.0 mb)
Winds: from the SW (230 degrees) at 2 MPH (2 knots; 1.0 m/s)
Visibility: 6 miles ( 9 km)
Ceiling: at least 12,000 feet AGL
Clouds: sky clear below 12,000 feet AGL
Weather: no significant weather observed at this time

METAR text: LUKK 252300Z VRB02KT 9000 NSC M02/M08 Q1021 R08/D NOSIG
Conditions at: LUKK (CHISINAU INTL , MD) observed 2300 UTC 25 January 2020
Temperature: -2.0°C (28°F)
Dewpoint: -8.0°C (18°F) [RH = 63%]
Pressure (altimeter): 30.15 inches Hg (1021.0 mb)
Winds: variable direction winds at 2 MPH (2 knots; 1.0 m/s)
Visibility: 6 miles ( 9 km)
Ceiling: at least 12,000 feet AGL
Clouds: sky clear below 12,000 feet AGL
Weather: no significant weather observed at this time

METAR text: LUKK 252230Z VRB01KT 9000 NSC M02/M08 Q1021 R08/D NOSIG
Conditions at: LUKK (CHISINAU INTL , MD) observed 2230 UTC 25 January 2020
Temperature: -2.0°C (28°F)
Dewpoint: -8.0°C (18°F) [RH = 63%]
Pressure (altimeter): 30.15 inches Hg (1021.0 mb)
Winds: variable direction winds at 1 MPH (1 knots; 0.5 m/s)
Visibility: 6 miles ( 9 km)
Ceiling: at least 12,000 feet AGL
Clouds: sky clear below 12,000 feet AGL
Weather: no significant weather observed at this time

METAR text: LUKK 252200Z VRB02KT CAVOK M02/M08 Q1021 R08/D NOSIG
Conditions at: LUKK (CHISINAU INTL , MD) observed 2200 UTC 25 January 2020
Temperature: -2.0°C (28°F)
Dewpoint: -8.0°C (18°F) [RH = 63%]
Pressure (altimeter): 30.15 inches Hg (1021.0 mb)
Winds: variable direction winds at 2 MPH (2 knots; 1.0 m/s)
Visibility: 6 or more miles (10+ km)
Ceiling: ceiling and visibility are OK
Clouds: unknown
Weather: no significant weather observed at this time

METAR text: LUKK 252130Z VRB02KT CAVOK M01/M07 Q1021 R08/D NOSIG
Conditions at: LUKK (CHISINAU INTL , MD) observed 2130 UTC 25 January 2020
Temperature: -1.0°C (30°F)
Dewpoint: -7.0°C (19°F) [RH = 64%]
Pressure (altimeter): 30.15 inches Hg (1021.0 mb)
Winds: variable direction winds at 2 MPH (2 knots; 1.0 m/s)
Visibility: 6 or more miles (10+ km)
Ceiling: ceiling and visibility are OK
Clouds: unknown
Weather: no significant weather observed at this time

METAR text: LUKK 252100Z 34004KT 270V010 CAVOK M02/M07 Q1021 R08/D NOSIG
Conditions at: LUKK (CHISINAU INTL , MD) observed 2100 UTC 25 January 2020
Temperature: -2.0°C (28°F)
Dewpoint: -7.0°C (19°F) [RH = 69%]
Pressure (altimeter): 30.15 inches Hg (1021.0 mb)
Winds: from the NNW (340 degrees) at 5 MPH (4 knots; 2.1 m/s)
Visibility: 6 or more miles (10+ km)
Ceiling: ceiling and visibility are OK
Clouds: unknown
Weather: no significant weather observed at this time

METAR text: LUKK 252030Z VRB01KT CAVOK M01/M08 Q1021 R08/D NOSIG
Conditions at: LUKK (CHISINAU INTL , MD) observed 2030 UTC 25 January 2020
Temperature: -1.0°C (30°F)
Dewpoint: -8.0°C (18°F) [RH = 59%]
Pressure (altimeter): 30.15 inches Hg (1021.0 mb)
Winds: variable direction winds at 1 MPH (1 knots; 0.5 m/s)
Visibility: 6 or more miles (10+ km)
Ceiling: ceiling and visibility are OK
Clouds: unknown
Weather: no significant weather observed at this time

METAR text: LUKK 252000Z VRB04KT CAVOK M01/M08 Q1021 R08/D NOSIG
Conditions at: LUKK (CHISINAU INTL , MD) observed 2000 UTC 25 January 2020
Temperature: -1.0°C (30°F)
Dewpoint: -8.0°C (18°F) [RH = 59%]
Pressure (altimeter): 30.15 inches Hg (1021.0 mb)
Winds: variable direction winds at 5 MPH (4 knots; 2.1 m/s)
Visibility: 6 or more miles (10+ km)
Ceiling: ceiling and visibility are OK
Clouds: unknown
Weather: no significant weather observed at this time

METAR text: LUKK 251930Z 28006KT CAVOK 01/M08 Q1021 R08/D NOSIG
Conditions at: LUKK (CHISINAU INTL , MD) observed 1930 UTC 25 January 2020
Temperature: 1.0°C (34°F)
Dewpoint: -8.0°C (18°F) [RH = 51%]
Pressure (altimeter): 30.15 inches Hg (1021.0 mb)
Winds: from the W (280 degrees) at 7 MPH (6 knots; 3.1 m/s)
Visibility: 6 or more miles (10+ km)
Ceiling: ceiling and visibility are OK
Clouds: unknown
Weather: no significant weather observed at this time

METAR text: LUKK 251900Z 28005KT CAVOK 01/M07 Q1021 R08/D NOSIG
Conditions at: LUKK (CHISINAU INTL , MD) observed 1900 UTC 25 January 2020
Temperature: 1.0°C (34°F)
Dewpoint: -7.0°C (19°F) [RH = 55%]
Pressure (altimeter): 30.15 inches Hg (1021.0 mb)
Winds: from the W (280 degrees) at 6 MPH (5 knots; 2.6 m/s)
Visibility: 6 or more miles (10+ km)
Ceiling: ceiling and visibility are OK
Clouds: unknown
Weather: no significant weather observed at this time

METAR text: LUKK 251830Z 31005KT 280V010 CAVOK 02/M07 Q1020 R26/D NOSIG
Conditions at: LUKK (CHISINAU INTL , MD) observed 1830 UTC 25 January 2020
Temperature: 2.0°C (36°F)
Dewpoint: -7.0°C (19°F) [RH = 51%]
Pressure (altimeter): 30.12 inches Hg (1020.0 mb)
Winds: from the NW (310 degrees) at 6 MPH (5 knots; 2.6 m/s)
Visibility: 6 or more miles (10+ km)
Ceiling: ceiling and visibility are OK
Clouds: unknown
Weather: no significant weather observed at this time

METAR text: LUKK 251800Z 34006KT CAVOK 04/M06 Q1020 R26/D NOSIG
Conditions at: LUKK (CHISINAU INTL , MD) observed 1800 UTC 25 January 2020
Temperature: 4.0°C (39°F)
Dewpoint: -6.0°C (21°F) [RH = 48%]
Pressure (altimeter): 30.12 inches Hg (1020.0 mb)
Winds: from the NNW (340 degrees) at 7 MPH (6 knots; 3.1 m/s)
Visibility: 6 or more miles (10+ km)
Ceiling: ceiling and visibility are OK
Clouds: unknown
Weather: no significant weather observed at this time

METAR text: LUKK 251730Z 29010KT CAVOK 03/M06 Q1020 R26/D NOSIG
Conditions at: LUKK (CHISINAU INTL , MD) observed 1730 UTC 25 January 2020
Temperature: 3.0°C (37°F)
Dewpoint: -6.0°C (21°F) [RH = 52%]
Pressure (altimeter): 30.12 inches Hg (1020.0 mb)
Winds: from the WNW (290 degrees) at 12 MPH (10 knots; 5.1 m/s)
Visibility: 6 or more miles (10+ km)
Ceiling: ceiling and visibility are OK
Clouds: unknown
Weather: no significant weather observed at this time

METAR text: LUKK 251700Z 29010KT CAVOK 03/M07 Q1020 R26/D NOSIG
Conditions at: LUKK (CHISINAU INTL , MD) observed 1700 UTC 25 January 2020
Temperature: 3.0°C (37°F)
Dewpoint: -7.0°C (19°F) [RH = 48%]
Pressure (altimeter): 30.12 inches Hg (1020.0 mb)
Winds: from the WNW (290 degrees) at 12 MPH (10 knots; 5.1 m/s)
Visibility: 6 or more miles (10+ km)
Ceiling: ceiling and visibility are OK
Clouds: unknown
Weather: no significant weather observed at this time

METAR text: LUKK 251630Z 29012KT CAVOK 03/M07 Q1020 R26/D NOSIG
Conditions at: LUKK (CHISINAU INTL , MD) observed 1630 UTC 25 January 2020
Temperature: 3.0°C (37°F)
Dewpoint: -7.0°C (19°F) [RH = 48%]
Pressure (altimeter): 30.12 inches Hg (1020.0 mb)
Winds: from the WNW (290 degrees) at 14 MPH (12 knots; 6.2 m/s)
Visibility: 6 or more miles (10+ km)
Ceiling: ceiling and visibility are OK
Clouds: unknown
Weather: no significant weather observed at this time

METAR text: LUKK 251600Z 29007KT CAVOK 02/M08 Q1019 R26/D NOSIG
Conditions at: LUKK (CHISINAU INTL , MD) observed 1600 UTC 25 January 2020
Temperature: 2.0°C (36°F)
Dewpoint: -8.0°C (18°F) [RH = 47%]
Pressure (altimeter): 30.09 inches Hg (1019.0 mb)
Winds: from the WNW (290 degrees) at 8 MPH (7 knots; 3.6 m/s)
Visibility: 6 or more miles (10+ km)
Ceiling: ceiling and visibility are OK
Clouds: unknown
Weather: no significant weather observed at this time

METAR text: LUKK 251530Z 27009KT CAVOK 04/M09 Q1019 R26/D NOSIG
Conditions at: LUKK (CHISINAU INTL , MD) observed 1530 UTC 25 January 2020
Temperature: 4.0°C (39°F)
Dewpoint: -9.0°C (16°F) [RH = 38%]
Pressure (altimeter): 30.09 inches Hg (1019.0 mb)
Winds: from the W (270 degrees) at 10 MPH (9 knots; 4.6 m/s)
Visibility: 6 or more miles (10+ km)
Ceiling: ceiling and visibility are OK
Clouds: unknown
Weather: no significant weather observed at this time

METAR text: LUKK 251500Z 27007KT CAVOK 04/M09 Q1019 R08/D NOSIG
Conditions at: LUKK (CHISINAU INTL , MD) observed 1500 UTC 25 January 2020
Temperature: 4.0°C (39°F)
Dewpoint: -9.0°C (16°F) [RH = 38%]
Pressure (altimeter): 30.09 inches Hg (1019.0 mb)
Winds: from the W (270 degrees) at 8 MPH (7 knots; 3.6 m/s)
Visibility: 6 or more miles (10+ km)
Ceiling: ceiling and visibility are OK
Clouds: unknown
Weather: no significant weather observed at this time

METAR text: LUKK 251430Z 27006KT CAVOK 06/M08 Q1019 R08/D NOSIG
Conditions at: LUKK (CHISINAU INTL , MD) observed 1430 UTC 25 January 2020
Temperature: 6.0°C (43°F)
Dewpoint: -8.0°C (18°F) [RH = 36%]
Pressure (altimeter): 30.09 inches Hg (1019.0 mb)
Winds: from the W (270 degrees) at 7 MPH (6 knots; 3.1 m/s)
Visibility: 6 or more miles (10+ km)
Ceiling: ceiling and visibility are OK
Clouds: unknown
Weather: no significant weather observed at this time

METAR text: LUKK 251400Z 30009KT CAVOK 08/M08 Q1019 R26/D NOSIG
Conditions at: LUKK (CHISINAU INTL , MD) observed 1400 UTC 25 January 2020
Temperature: 8.0°C (46°F)
Dewpoint: -8.0°C (18°F) [RH = 31%]
Pressure (altimeter): 30.09 inches Hg (1019.0 mb)
Winds: from the WNW (300 degrees) at 10 MPH (9 knots; 4.6 m/s)
Visibility: 6 or more miles (10+ km)
Ceiling: ceiling and visibility are OK
Clouds: unknown
Weather: no significant weather observed at this time

METAR text: LUKK 251330Z 30011KT CAVOK 09/M07 Q1019 R26/D NOSIG
Conditions at: LUKK (CHISINAU INTL , MD) observed 1330 UTC 25 January 2020
Temperature: 9.0°C (48°F)
Dewpoint: -7.0°C (19°F) [RH = 32%]
Pressure (altimeter): 30.09 inches Hg (1019.0 mb)
Winds: from the WNW (300 degrees) at 13 MPH (11 knots; 5.7 m/s)
Visibility: 6 or more miles (10+ km)
Ceiling: ceiling and visibility are OK
Clouds: unknown
Weather: no significant weather observed at this time

METAR text: LUKK 251300Z 27010KT CAVOK 10/M07 Q1019 R08/D NOSIG
Conditions at: LUKK (CHISINAU INTL , MD) observed 1300 UTC 25 January 2020
Temperature: 10.0°C (50°F)
Dewpoint: -7.0°C (19°F) [RH = 29%]
Pressure (altimeter): 30.09 inches Hg (1019.0 mb)
Winds: from the W (270 degrees) at 12 MPH (10 knots; 5.1 m/s)
Visibility: 6 or more miles (10+ km)
Ceiling: ceiling and visibility are OK
Clouds: unknown
Weather: no significant weather observed at this time

METAR text: LUKK 251230Z 27008KT 240V310 CAVOK 10/M08 Q1019 R08/D NOSIG
Conditions at: LUKK (CHISINAU INTL , MD) observed 1230 UTC 25 January 2020
Temperature: 10.0°C (50°F)
Dewpoint: -8.0°C (18°F) [RH = 27%]
Pressure (altimeter): 30.09 inches Hg (1019.0 mb)
Winds: from the W (270 degrees) at 9 MPH (8 knots; 4.1 m/s)
Visibility: 6 or more miles (10+ km)
Ceiling: ceiling and visibility are OK
Clouds: unknown
Weather: no significant weather observed at this time

METAR text: LUKK 251200Z 29010KT CAVOK 09/M07 Q1019 R08/D NOSIG
Conditions at: LUKK (CHISINAU INTL , MD) observed 1200 UTC 25 January 2020
Temperature: 9.0°C (48°F)
Dewpoint: -7.0°C (19°F) [RH = 32%]
Pressure (altimeter): 30.09 inches Hg (1019.0 mb)
Winds: from the WNW (290 degrees) at 12 MPH (10 knots; 5.1 m/s)
Visibility: 6 or more miles (10+ km)
Ceiling: ceiling and visibility are OK
Clouds: unknown
Weather: no significant weather observed at this time

METAR text: LUKK 251130Z 31007KT 280V340 CAVOK 08/M07 Q1020 R08/D NOSIG
Conditions at: LUKK (CHISINAU INTL , MD) observed 1130 UTC 25 January 2020
Temperature: 8.0°C (46°F)
Dewpoint: -7.0°C (19°F) [RH = 34%]
Pressure (altimeter): 30.12 inches Hg (1020.0 mb)
Winds: from the NW (310 degrees) at 8 MPH (7 knots; 3.6 m/s)
Visibility: 6 or more miles (10+ km)
Ceiling: ceiling and visibility are OK
Clouds: unknown
Weather: no significant weather observed at this time

METAR text: LUKK 251100Z 35009KT 320V020 CAVOK 08/M07 Q1020 R26/D NOSIG
Conditions at: LUKK (CHISINAU INTL , MD) observed 1100 UTC 25 January 2020
Temperature: 8.0°C (46°F)
Dewpoint: -7.0°C (19°F) [RH = 34%]
Pressure (altimeter): 30.12 inches Hg (1020.0 mb)
Winds: from the N (350 degrees) at 10 MPH (9 knots; 4.6 m/s)
Visibility: 6 or more miles (10+ km)
Ceiling: ceiling and visibility are OK
Clouds: unknown
Weather: no significant weather observed at this time

METAR text: LUKK 251030Z 35007KT 320V020 CAVOK 07/M06 Q1020 R26/D NOSIG
Conditions at: LUKK (CHISINAU INTL , MD) observed 1030 UTC 25 January 2020
Temperature: 7.0°C (45°F)
Dewpoint: -6.0°C (21°F) [RH = 39%]
Pressure (altimeter): 30.12 inches Hg (1020.0 mb)
Winds: from the N (350 degrees) at 8 MPH (7 knots; 3.6 m/s)
Visibility: 6 or more miles (10+ km)
Ceiling: ceiling and visibility are OK
Clouds: unknown
Weather: no significant weather observed at this time

METAR text: LUKK 251000Z 33009KT 300V360 CAVOK 06/M06 Q1020 R08/D NOSIG
Conditions at: LUKK (CHISINAU INTL , MD) observed 1000 UTC 25 January 2020
Temperature: 6.0°C (43°F)
Dewpoint: -6.0°C (21°F) [RH = 42%]
Pressure (altimeter): 30.12 inches Hg (1020.0 mb)
Winds: from the NNW (330 degrees) at 10 MPH (9 knots; 4.6 m/s)
Visibility: 6 or more miles (10+ km)
Ceiling: ceiling and visibility are OK
Clouds: unknown
Weather: no significant weather observed at this time

METAR text: LUKK 250930Z 33009KT CAVOK 06/M06 Q1021 R08/D NOSIG
Conditions at: LUKK (CHISINAU INTL , MD) observed 0930 UTC 25 January 2020
Temperature: 6.0°C (43°F)
Dewpoint: -6.0°C (21°F) [RH = 42%]
Pressure (altimeter): 30.15 inches Hg (1021.0 mb)
Winds: from the NNW (330 degrees) at 10 MPH (9 knots; 4.6 m/s)
Visibility: 6 or more miles (10+ km)
Ceiling: ceiling and visibility are OK
Clouds: unknown
Weather: no significant weather observed at this time

METAR text: LUKK 250900Z VRB02KT CAVOK 04/M05 Q1021 R26/D NOSIG
Conditions at: LUKK (CHISINAU INTL , MD) observed 0900 UTC 25 January 2020
Temperature: 4.0°C (39°F)
Dewpoint: -5.0°C (23°F) [RH = 52%]
Pressure (altimeter): 30.15 inches Hg (1021.0 mb)
Winds: variable direction winds at 2 MPH (2 knots; 1.0 m/s)
Visibility: 6 or more miles (10+ km)
Ceiling: ceiling and visibility are OK
Clouds: unknown
Weather: no significant weather observed at this time

METAR text: LUKK 250830Z 00000KT CAVOK 03/M05 Q1021 R26/D NOSIG
Conditions at: LUKK (CHISINAU INTL , MD) observed 0830 UTC 25 January 2020
Temperature: 3.0°C (37°F)
Dewpoint: -5.0°C (23°F) [RH = 56%]
Pressure (altimeter): 30.15 inches Hg (1021.0 mb)
Winds: calm
Visibility: 6 or more miles (10+ km)
Ceiling: ceiling and visibility are OK
Clouds: unknown
Weather: no significant weather observed at this time

METAR text: LUKK 250800Z 24003KT 220V280 CAVOK M00/M05 Q1021 R26/D NOSIG
Conditions at: LUKK (CHISINAU INTL , MD) observed 0800 UTC 25 January 2020
Temperature: 0.0°C (32°F)
Dewpoint: -5.0°C (23°F) [RH = 69%]
Pressure (altimeter): 30.15 inches Hg (1021.0 mb)
Winds: from the WSW (240 degrees) at 3 MPH (3 knots; 1.5 m/s)
Visibility: 6 or more miles (10+ km)
Ceiling: ceiling and visibility are OK
Clouds: unknown
Weather: no significant weather observed at this time

METAR text: LUKK 250730Z 34003KT 300V010 CAVOK M02/M06 Q1021 R26/D NOSIG
Conditions at: LUKK (CHISINAU INTL , MD) observed 0730 UTC 25 January 2020
Temperature: -2.0°C (28°F)
Dewpoint: -6.0°C (21°F) [RH = 74%]
Pressure (altimeter): 30.15 inches Hg (1021.0 mb)
Winds: from the NNW (340 degrees) at 3 MPH (3 knots; 1.5 m/s)
Visibility: 6 or more miles (10+ km)
Ceiling: ceiling and visibility are OK
Clouds: unknown
Weather: no significant weather observed at this time

METAR text: LUKK 250700Z VRB01KT CAVOK M03/M06 Q1020 R26/D NOSIG
Conditions at: LUKK (CHISINAU INTL , MD) observed 0700 UTC 25 January 2020
Temperature: -3.0°C (27°F)
Dewpoint: -6.0°C (21°F) [RH = 80%]
Pressure (altimeter): 30.12 inches Hg (1020.0 mb)
Winds: variable direction winds at 1 MPH (1 knots; 0.5 m/s)
Visibility: 6 or more miles (10+ km)
Ceiling: ceiling and visibility are OK
Clouds: unknown
Weather: no significant weather observed at this time

METAR text: LUKK 250630Z 27003KT 250V310 9000 NSC M06/M08 Q1020 R26/D NOSIG
Conditions at: LUKK (CHISINAU INTL , MD) observed 0630 UTC 25 January 2020
Temperature: -6.0°C (21°F)
Dewpoint: -8.0°C (18°F) [RH = 86%]
Pressure (altimeter): 30.12 inches Hg (1020.0 mb)
Winds: from the W (270 degrees) at 3 MPH (3 knots; 1.5 m/s)
Visibility: 6 miles ( 9 km)
Ceiling: at least 12,000 feet AGL
Clouds: sky clear below 12,000 feet AGL
Weather: no significant weather observed at this time

METAR text: LUKK 250600Z VRB02KT 9000 NSC M06/M08 Q1020 R26/D NOSIG
Conditions at: LUKK (CHISINAU INTL , MD) observed 0600 UTC 25 January 2020
Temperature: -6.0°C (21°F)
Dewpoint: -8.0°C (18°F) [RH = 86%]
Pressure (altimeter): 30.12 inches Hg (1020.0 mb)
Winds: variable direction winds at 2 MPH (2 knots; 1.0 m/s)
Visibility: 6 miles ( 9 km)
Ceiling: at least 12,000 feet AGL
Clouds: sky clear below 12,000 feet AGL
Weather: no significant weather observed at this time

METAR text: LUKK 250530Z VRB01KT 9000 NSC M08/M10 Q1020 R26/D NOSIG
Conditions at: LUKK (CHISINAU INTL , MD) observed 0530 UTC 25 January 2020
Temperature: -8.0°C (18°F)
Dewpoint: -10.0°C (14°F) [RH = 85%]
Pressure (altimeter): 30.12 inches Hg (1020.0 mb)
Winds: variable direction winds at 1 MPH (1 knots; 0.5 m/s)
Visibility: 6 miles ( 9 km)
Ceiling: at least 12,000 feet AGL
Clouds: sky clear below 12,000 feet AGL
Weather: no significant weather observed at this time

METAR text: LUKK 250500Z 33001KT CAVOK M06/M08 Q1019 R26/D NOSIG
Conditions at: LUKK (CHISINAU INTL , MD) observed 0500 UTC 25 January 2020
Temperature: -6.0°C (21°F)
Dewpoint: -8.0°C (18°F) [RH = 86%]
Pressure (altimeter): 30.09 inches Hg (1019.0 mb)
Winds: from the NNW (330 degrees) at 1 MPH (1 knots; 0.5 m/s)
Visibility: 6 or more miles (10+ km)
Ceiling: ceiling and visibility are OK
Clouds: unknown
Weather: no significant weather observed at this time

METAR text: LUKK 250430Z VRB01KT CAVOK M06/M08 Q1019 R26/D NOSIG
Conditions at: LUKK (CHISINAU INTL , MD) observed 0430 UTC 25 January 2020
Temperature: -6.0°C (21°F)
Dewpoint: -8.0°C (18°F) [RH = 86%]
Pressure (altimeter): 30.09 inches Hg (1019.0 mb)
Winds: variable direction winds at 1 MPH (1 knots; 0.5 m/s)
Visibility: 6 or more miles (10+ km)
Ceiling: ceiling and visibility are OK
Clouds: unknown
Weather: no significant weather observed at this time

METAR text: LUKK 250400Z 01005KT CAVOK M03/M07 Q1019 R26/D NOSIG
Conditions at: LUKK (CHISINAU INTL , MD) observed 0400 UTC 25 January 2020
Temperature: -3.0°C (27°F)
Dewpoint: -7.0°C (19°F) [RH = 74%]
Pressure (altimeter): 30.09 inches Hg (1019.0 mb)
Winds: from the N (10 degrees) at 6 MPH (5 knots; 2.6 m/s)
Visibility: 6 or more miles (10+ km)
Ceiling: ceiling and visibility are OK
Clouds: unknown
Weather: no significant weather observed at this time

METAR text: LUKK 250330Z VRB01KT CAVOK M06/M09 Q1019 R08/D NOSIG
Conditions at: LUKK (CHISINAU INTL , MD) observed 0330 UTC 25 January 2020
Temperature: -6.0°C (21°F)
Dewpoint: -9.0°C (16°F) [RH = 79%]
Pressure (altimeter): 30.09 inches Hg (1019.0 mb)
Winds: variable direction winds at 1 MPH (1 knots; 0.5 m/s)
Visibility: 6 or more miles (10+ km)
Ceiling: ceiling and visibility are OK
Clouds: unknown
Weather: no significant weather observed at this time

METAR text: LUKK 250300Z VRB01KT 8000 NSC M06/M09 Q1019 R08/D NOSIG
Conditions at: LUKK (CHISINAU INTL , MD) observed 0300 UTC 25 January 2020
Temperature: -6.0°C (21°F)
Dewpoint: -9.0°C (16°F) [RH = 79%]
Pressure (altimeter): 30.09 inches Hg (1019.0 mb)
Winds: variable direction winds at 1 MPH (1 knots; 0.5 m/s)
Visibility: 5 miles ( 8 km)
Ceiling: at least 12,000 feet AGL
Clouds: sky clear below 12,000 feet AGL
Weather: no significant weather observed at this time

METAR text: LUKK 250230Z VRB01KT CAVOK M05/M09 Q1018 R26/D NOSIG
Conditions at: LUKK (CHISINAU INTL , MD) observed 0230 UTC 25 January 2020
Temperature: -5.0°C (23°F)
Dewpoint: -9.0°C (16°F) [RH = 73%]
Pressure (altimeter): 30.06 inches Hg (1018.0 mb)
Winds: variable direction winds at 1 MPH (1 knots; 0.5 m/s)
Visibility: 6 or more miles (10+ km)
Ceiling: ceiling and visibility are OK
Clouds: unknown
Weather: no significant weather observed at this time

METAR text: LUKK 250200Z 32004KT CAVOK M04/M07 Q1019 R26/D NOSIG
Conditions at: LUKK (CHISINAU INTL , MD) observed 0200 UTC 25 January 2020
Temperature: -4.0°C (25°F)
Dewpoint: -7.0°C (19°F) [RH = 80%]
Pressure (altimeter): 30.09 inches Hg (1019.0 mb)
Winds: from the NW (320 degrees) at 5 MPH (4 knots; 2.1 m/s)
Visibility: 6 or more miles (10+ km)
Ceiling: ceiling and visibility are OK
Clouds: unknown
Weather: no significant weather observed at this time

METAR text: LUKK 250130Z 28006KT CAVOK M05/M08 Q1019 R26/D NOSIG
Conditions at: LUKK (CHISINAU INTL , MD) observed 0130 UTC 25 January 2020
Temperature: -5.0°C (23°F)
Dewpoint: -8.0°C (18°F) [RH = 79%]
Pressure (altimeter): 30.09 inches Hg (1019.0 mb)
Winds: from the W (280 degrees) at 7 MPH (6 knots; 3.1 m/s)
Visibility: 6 or more miles (10+ km)
Ceiling: ceiling and visibility are OK
Clouds: unknown
Weather: no significant weather observed at this time

METAR text: LUKK 250100Z 25004KT CAVOK M06/M09 Q1019 R26/D NOSIG
Conditions at: LUKK (CHISINAU INTL , MD) observed 0100 UTC 25 January 2020
Temperature: -6.0°C (21°F)
Dewpoint: -9.0°C (16°F) [RH = 79%]
Pressure (altimeter): 30.09 inches Hg (1019.0 mb)
Winds: from the WSW (250 degrees) at 5 MPH (4 knots; 2.1 m/s)
Visibility: 6 or more miles (10+ km)
Ceiling: ceiling and visibility are OK
Clouds: unknown
Weather: no significant weather observed at this time

METAR text: LUKK 250030Z 30003KT CAVOK M04/M10 Q1019 R26/D NOSIG
Conditions at: LUKK (CHISINAU INTL , MD) observed 0030 UTC 25 January 2020
Temperature: -4.0°C (25°F)
Dewpoint: -10.0°C (14°F) [RH = 63%]
Pressure (altimeter): 30.09 inches Hg (1019.0 mb)
Winds: from the WNW (300 degrees) at 3 MPH (3 knots; 1.5 m/s)
Visibility: 6 or more miles (10+ km)
Ceiling: ceiling and visibility are OK
Clouds: unknown
Weather: no significant weather observed at this time

METAR text: LUKK 250000Z VRB01KT CAVOK M02/M07 Q1019 R26/D NOSIG
Conditions at: LUKK (CHISINAU INTL , MD) observed 0000 UTC 25 January 2020
Temperature: -2.0°C (28°F)
Dewpoint: -7.0°C (19°F) [RH = 69%]
Pressure (altimeter): 30.09 inches Hg (1019.0 mb)
Winds: variable direction winds at 1 MPH (1 knots; 0.5 m/s)
Visibility: 6 or more miles (10+ km)
Ceiling: ceiling and visibility are OK
Clouds: unknown
Weather: no significant weather observed at this time

METAR text: LUKK 242330Z 00000KT CAVOK M02/M07 Q1019 R26/D NOSIG
Conditions at: LUKK (CHISINAU INTL , MD) observed 2330 UTC 24 January 2020
Temperature: -2.0°C (28°F)
Dewpoint: -7.0°C (19°F) [RH = 69%]
Pressure (altimeter): 30.09 inches Hg (1019.0 mb)
Winds: calm
Visibility: 6 or more miles (10+ km)
Ceiling: ceiling and visibility are OK
Clouds: unknown
Weather: no significant weather observed at this time

METAR text: LUKK 242300Z 00000KT CAVOK M03/M07 Q1019 R26/D NOSIG
Conditions at: LUKK (CHISINAU INTL , MD) observed 2300 UTC 24 January 2020
Temperature: -3.0°C (27°F)
Dewpoint: -7.0°C (19°F) [RH = 74%]
Pressure (altimeter): 30.09 inches Hg (1019.0 mb)
Winds: calm
Visibility: 6 or more miles (10+ km)
Ceiling: ceiling and visibility are OK
Clouds: unknown
Weather: no significant weather observed at this time

METAR text: LUKK 242230Z 22006KT CAVOK M02/M07 Q1020 R08/D NOSIG
Conditions at: LUKK (CHISINAU INTL , MD) observed 2230 UTC 24 January 2020
Temperature: -2.0°C (28°F)
Dewpoint: -7.0°C (19°F) [RH = 69%]
Pressure (altimeter): 30.12 inches Hg (1020.0 mb)
Winds: from the SW (220 degrees) at 7 MPH (6 knots; 3.1 m/s)
Visibility: 6 or more miles (10+ km)
Ceiling: ceiling and visibility are OK
Clouds: unknown
Weather: no significant weather observed at this time

METAR text: LUKK 242200Z 24005KT CAVOK M02/M08 Q1020 R08/D NOSIG
Conditions at: LUKK (CHISINAU INTL , MD) observed 2200 UTC 24 January 2020
Temperature: -2.0°C (28°F)
Dewpoint: -8.0°C (18°F) [RH = 63%]
Pressure (altimeter): 30.12 inches Hg (1020.0 mb)
Winds: from the WSW (240 degrees) at 6 MPH (5 knots; 2.6 m/s)
Visibility: 6 or more miles (10+ km)
Ceiling: ceiling and visibility are OK
Clouds: unknown
Weather: no significant weather observed at this time

METAR text: LUKK 242130Z 23006KT CAVOK M01/M07 Q1020 R08/D NOSIG
Conditions at: LUKK (CHISINAU INTL , MD) observed 2130 UTC 24 January 2020
Temperature: -1.0°C (30°F)
Dewpoint: -7.0°C (19°F) [RH = 64%]
Pressure (altimeter): 30.12 inches Hg (1020.0 mb)
Winds: from the SW (230 degrees) at 7 MPH (6 knots; 3.1 m/s)
Visibility: 6 or more miles (10+ km)
Ceiling: ceiling and visibility are OK
Clouds: unknown
Weather: no significant weather observed at this time

METAR text: LUKK 242100Z 23006KT CAVOK M01/M07 Q1020 R26/D NOSIG
Conditions at: LUKK (CHISINAU INTL , MD) observed 2100 UTC 24 January 2020
Temperature: -1.0°C (30°F)
Dewpoint: -7.0°C (19°F) [RH = 64%]
Pressure (altimeter): 30.12 inches Hg (1020.0 mb)
Winds: from the SW (230 degrees) at 7 MPH (6 knots; 3.1 m/s)
Visibility: 6 or more miles (10+ km)
Ceiling: ceiling and visibility are OK
Clouds: unknown
Weather: no significant weather observed at this time

Forecast for: LUKK (CHISINAU INTL , MD)
Text: TAF LUKK 260520Z 2606/2706 29006KT CAVOK
Forecast period: 0600 to 1400 UTC 26 January 2020
Forecast type: FROM: standard forecast or significant change
Winds: from the WNW (290 degrees) at 7 MPH (6 knots; 3.1 m/s)
Visibility: 6 or more miles 10+ km)
Ceiling: unknown
Clouds: missing
Weather: NSW  (no significant weather)
Text: BECMG 2614/2616 15005KT
Forecast period: 1400 to 1900 UTC 26 January 2020
Forecast type: BECOMING: Conditions expected to become as follows by 1600 UTC 26 January 2020
Winds: from the SSE (150 degrees) at 6 MPH (5 knots; 2.6 m/s)
Visibility: 6 or more miles 10+ km)
Ceiling: unknown
Clouds: missing
Weather: NSW  (no significant weather)
Text: BECMG 2619/2621 4000 BR
Forecast period: 1900 UTC 26 January 2020 to 0600 UTC 27 January 2020
Forecast type: BECOMING: Conditions expected to become as follows by 2100 UTC 26 January 2020
Winds: from the SSE (150 degrees) at 6 MPH (5 knots; 2.6 m/s)
Visibility: 2.49 miles (4.01 km)
Ceiling: unknown
Clouds: missing
Weather: BR  (mist)
Text: TEMPO 2702/2706 0400 FZFG VV///
Forecast period: 0200 to 0600 UTC 27 January 2020
Forecast type: TEMPORARY: The following changes expected for less than half the time period
Visibility: 0.25 miles (0.40 km)
Ceiling: unknown
Clouds: missing
Weather: FZFG  (freezing fog)